Pagina principale
METAR-TAF:

METAR-TAF

Aeroporti :

Andora, Italia

Capo Mele

latitudine: 43-57N, longitudine: 008-10E, altezza: 220 m

Osservazione

Il bollettino è stato emesso 38 minuti fa, alle 16:55 UTC
Vento 9 kt da ovest/sud-ovest
Temperature 13°C
Umidità 82%
Pressione 1017 hPa
Visibilità 10 km o più
nessuna nube inferiore a 1500 m e nessun cumulonembo

METAR: LIMU 181655Z 24009KT CAVOK 13/10 Q1017 RMK SKC QUK / QUL / VIS MAR 40 KM VIS MIN 9999

Ora: 18:33 (17:33 UTC)


TAF: mancante

Osservazioni e previsioni meteorologiche di più di 4000 aeroporti (messaggi METAR e TAF).

Le stazioni disponibili sono rappresentate dai dischi gialli e rossi sulla carta.

Puntare il mouse per vedere il nome della stazione.

Clicca sopra per visualizzare le osservazioni e previsioni meteorologiche.

Per cambiare la mappa : fare clic sui pulsanti verdi con una croce nera per ingrandire, il pulsante verde con un trattino per diminuire, o sulla freccia verde per le mappe adiacenti.


METAR-TAF: